JST974 YMML-YPPH
Flight info
| Callsign | JST974 |
|---|---|
| Flight time | 3h 34m |
| Altitude | 34000 |
| Route | CRENA Q158 TOMUM/N0451F360 Q158 KABLI |
| Aircraft | A320/M-SDE3FGHIRWY/LB1 |
Departure
| Time | 2026-05-04 05:09 |
|---|---|
| Airport | Melbourne Airport (YMML) |
Arrival
| Time | 2026-05-04 08:43 |
|---|---|
| Airport | Perth International Airport (YPPH) |
| Time | Latitude | Longitude | Altitude | Speed | Heading |
|---|---|---|---|---|---|
| 2026-05-04 04:29 | -37.67625 | 144.84752 | 377 ft | 0 kts | 351° |
| 2026-05-04 04:56 | -37.67639 | 144.84754 | 376 ft | 4 kts | 351° |
| 2026-05-04 04:57 | -37.67666 | 144.84760 | 374 ft | 3 kts | 351° |
| 2026-05-04 04:57 | -37.67693 | 144.84764 | 374 ft | 3 kts | 355° |
| 2026-05-04 04:57 | -37.67719 | 144.84764 | 372 ft | 3 kts | 22° |
| 2026-05-04 04:57 | -37.67731 | 144.84748 | 372 ft | 3 kts | 82° |
| 2026-05-04 04:58 | -37.67736 | 144.84714 | 371 ft | 4 kts | 82° |
| 2026-05-04 04:58 | -37.67740 | 144.84680 | 371 ft | 4 kts | 82° |
| 2026-05-04 04:58 | -37.67742 | 144.84649 | 370 ft | 4 kts | 94° |
| 2026-05-04 04:58 | -37.67737 | 144.84617 | 370 ft | 4 kts | 118° |
| 2026-05-04 04:59 | -37.67720 | 144.84591 | 371 ft | 4 kts | 147° |
| 2026-05-04 04:59 | -37.67696 | 144.84578 | 371 ft | 4 kts | 167° |
| 2026-05-04 04:59 | -37.67670 | 144.84572 | 372 ft | 4 kts | 174° |
| 2026-05-04 04:59 | -37.67660 | 144.84571 | 373 ft | 0 kts | 171° |
| 2026-05-04 05:03 | -37.67670 | 144.84573 | 372 ft | 5 kts | 171° |
| 2026-05-04 05:04 | -37.67786 | 144.84594 | 367 ft | 1 kts | 173° |
| 2026-05-04 05:04 | -37.67819 | 144.84599 | 366 ft | 8 kts | 173° |
| 2026-05-04 05:04 | -37.67834 | 144.84601 | 365 ft | 0 kts | 173° |
| 2026-05-04 05:06 | -37.67824 | 144.84536 | 367 ft | 11 kts | 269° |
| 2026-05-04 05:06 | -37.67840 | 144.84407 | 363 ft | 18 kts | 261° |
| 2026-05-04 05:06 | -37.67859 | 144.84241 | 362 ft | 16 kts | 262° |
| 2026-05-04 05:07 | -37.67869 | 144.84142 | 359 ft | 7 kts | 262° |
| 2026-05-04 05:07 | -37.67872 | 144.84119 | 358 ft | 0 kts | 262° |
| 2026-05-04 05:09 | -37.63795 | 144.83138 | 1656 ft | 149 kts | 347° |
| 2026-05-04 05:09 | -37.62943 | 144.82459 | 2243 ft | 155 kts | 309° |
| 2026-05-04 05:10 | -37.62733 | 144.81000 | 2452 ft | 194 kts | 269° |
| 2026-05-04 05:10 | -37.63075 | 144.79225 | 2685 ft | 220 kts | 263° |
| 2026-05-04 05:10 | -37.63512 | 144.77268 | 2946 ft | 245 kts | 261° |
| 2026-05-04 05:10 | -37.64006 | 144.75144 | 3490 ft | 256 kts | 260° |
| 2026-05-04 05:11 | -37.64510 | 144.72997 | 4384 ft | 254 kts | 261° |
| 2026-05-04 05:11 | -37.64999 | 144.70890 | 5245 ft | 253 kts | 261° |
| 2026-05-04 05:11 | -37.65262 | 144.68748 | 6130 ft | 243 kts | 278° |
| 2026-05-04 05:11 | -37.65150 | 144.66631 | 6983 ft | 242 kts | 279° |
| 2026-05-04 05:12 | -37.65018 | 144.64496 | 7743 ft | 247 kts | 279° |
| 2026-05-04 05:12 | -37.64880 | 144.62319 | 8460 ft | 251 kts | 279° |
| 2026-05-04 05:12 | -37.64741 | 144.60114 | 9197 ft | 253 kts | 279° |
| 2026-05-04 05:12 | -37.64599 | 144.57891 | 9913 ft | 255 kts | 278° |
| 2026-05-04 05:13 | -37.64452 | 144.55593 | 10212 ft | 274 kts | 278° |
| 2026-05-04 05:13 | -37.64291 | 144.53103 | 10340 ft | 295 kts | 277° |
| 2026-05-04 05:13 | -37.64118 | 144.50432 | 10464 ft | 316 kts | 277° |
| 2026-05-04 05:13 | -37.63936 | 144.47631 | 10695 ft | 330 kts | 277° |
| 2026-05-04 05:14 | -37.63749 | 144.44721 | 11198 ft | 336 kts | 277° |
| 2026-05-04 05:14 | -37.63559 | 144.41774 | 11750 ft | 339 kts | 277° |
| 2026-05-04 05:14 | -37.63366 | 144.38803 | 12328 ft | 341 kts | 277° |
| 2026-05-04 05:14 | -37.63171 | 144.35805 | 12868 ft | 345 kts | 277° |
| 2026-05-04 05:15 | -37.62975 | 144.32768 | 13455 ft | 348 kts | 277° |
| 2026-05-04 05:15 | -37.62778 | 144.29720 | 14022 ft | 350 kts | 277° |
| 2026-05-04 05:15 | -37.62575 | 144.26635 | 14498 ft | 354 kts | 277° |
| 2026-05-04 05:15 | -37.62366 | 144.23523 | 14992 ft | 358 kts | 277° |
| 2026-05-04 05:16 | -37.62157 | 144.20389 | 15539 ft | 360 kts | 277° |
| 2026-05-04 05:16 | -37.61949 | 144.17274 | 16019 ft | 363 kts | 277° |
| 2026-05-04 05:16 | -37.61735 | 144.14084 | 16526 ft | 367 kts | 277° |
| 2026-05-04 05:16 | -37.61518 | 144.10866 | 17072 ft | 369 kts | 277° |
| 2026-05-04 05:17 | -37.61299 | 144.07624 | 17590 ft | 373 kts | 277° |
| 2026-05-04 05:17 | -37.61077 | 144.04354 | 18125 ft | 376 kts | 277° |
| 2026-05-04 05:17 | -37.60853 | 144.01056 | 18600 ft | 378 kts | 277° |
| 2026-05-04 05:17 | -37.60625 | 143.97745 | 19024 ft | 382 kts | 277° |
| 2026-05-04 05:18 | -37.60394 | 143.94402 | 19480 ft | 384 kts | 277° |
| 2026-05-04 05:18 | -37.60160 | 143.91035 | 19911 ft | 387 kts | 277° |
| 2026-05-04 05:18 | -37.59923 | 143.87634 | 20337 ft | 390 kts | 278° |
| 2026-05-04 05:18 | -37.59685 | 143.84223 | 20771 ft | 392 kts | 278° |
| 2026-05-04 05:19 | -37.59443 | 143.80789 | 21158 ft | 395 kts | 278° |
| 2026-05-04 05:19 | -37.59202 | 143.77379 | 21569 ft | 396 kts | 278° |
| 2026-05-04 05:19 | -37.58953 | 143.73909 | 21921 ft | 399 kts | 277° |
| 2026-05-04 05:19 | -37.58704 | 143.70411 | 22264 ft | 402 kts | 277° |
| 2026-05-04 05:20 | -37.58456 | 143.66898 | 22617 ft | 404 kts | 277° |
| 2026-05-04 05:20 | -37.58206 | 143.63356 | 22953 ft | 406 kts | 277° |
| 2026-05-04 05:20 | -37.57948 | 143.59798 | 23296 ft | 409 kts | 277° |
| 2026-05-04 05:20 | -37.57686 | 143.56226 | 23606 ft | 411 kts | 278° |
| 2026-05-04 05:21 | -37.57426 | 143.52632 | 23887 ft | 412 kts | 277° |
| 2026-05-04 05:21 | -37.57168 | 143.49028 | 24175 ft | 414 kts | 277° |
| 2026-05-04 05:21 | -37.56908 | 143.45455 | 24440 ft | 416 kts | 277° |
| 2026-05-04 05:21 | -37.56642 | 143.41824 | 24763 ft | 416 kts | 277° |
| 2026-05-04 05:22 | -37.56373 | 143.38203 | 25179 ft | 414 kts | 278° |
| 2026-05-04 05:22 | -37.56107 | 143.34600 | 25598 ft | 413 kts | 278° |
| 2026-05-04 05:22 | -37.55841 | 143.31003 | 26023 ft | 411 kts | 278° |
| 2026-05-04 05:22 | -37.55574 | 143.27423 | 26453 ft | 410 kts | 278° |
| 2026-05-04 05:23 | -37.55306 | 143.23849 | 26882 ft | 409 kts | 278° |
| 2026-05-04 05:23 | -37.55038 | 143.20288 | 27306 ft | 408 kts | 278° |
| 2026-05-04 05:23 | -37.54768 | 143.16735 | 27728 ft | 407 kts | 278° |
| 2026-05-04 05:23 | -37.54493 | 143.13180 | 28152 ft | 407 kts | 278° |
| 2026-05-04 05:24 | -37.54226 | 143.09687 | 28566 ft | 406 kts | 278° |
| 2026-05-04 05:24 | -37.53958 | 143.06158 | 28993 ft | 405 kts | 278° |
| 2026-05-04 05:24 | -37.53689 | 143.02634 | 29422 ft | 404 kts | 278° |
| 2026-05-04 05:24 | -37.53420 | 142.99116 | 29861 ft | 403 kts | 278° |
| 2026-05-04 05:25 | -37.53149 | 142.95594 | 30196 ft | 403 kts | 278° |
| 2026-05-04 05:25 | -37.52877 | 142.92085 | 30520 ft | 403 kts | 278° |
| 2026-05-04 05:25 | -37.52606 | 142.88573 | 30862 ft | 402 kts | 278° |
| 2026-05-04 05:25 | -37.52332 | 142.85070 | 31220 ft | 401 kts | 278° |
| 2026-05-04 05:26 | -37.52055 | 142.81571 | 31573 ft | 401 kts | 278° |
| 2026-05-04 05:26 | -37.51776 | 142.78088 | 31922 ft | 400 kts | 278° |
| 2026-05-04 05:26 | -37.51498 | 142.74602 | 32255 ft | 400 kts | 278° |
| 2026-05-04 05:26 | -37.51222 | 142.71118 | 32585 ft | 400 kts | 278° |
| 2026-05-04 05:27 | -37.50953 | 142.67692 | 32921 ft | 399 kts | 278° |
| 2026-05-04 05:28 | -37.48952 | 142.42952 | 33881 ft | 423 kts | 278° |
| 2026-05-04 05:29 | -37.48341 | 142.35553 | 33880 ft | 426 kts | 278° |
| 2026-05-04 05:29 | -37.47729 | 142.28180 | 33876 ft | 426 kts | 277° |
| 2026-05-04 05:31 | -37.45215 | 141.98380 | 33890 ft | 428 kts | 277° |
| 2026-05-04 05:32 | -37.44576 | 141.90973 | 33896 ft | 428 kts | 277° |
| 2026-05-04 05:33 | -37.43607 | 141.79775 | 33896 ft | 430 kts | 276° |
| 2026-05-04 05:33 | -37.42949 | 141.72301 | 33890 ft | 430 kts | 276° |
| 2026-05-04 05:34 | -37.42288 | 141.64817 | 33905 ft | 431 kts | 276° |
| 2026-05-04 05:34 | -37.41625 | 141.57379 | 33901 ft | 431 kts | 276° |
| 2026-05-04 05:35 | -37.40948 | 141.49894 | 33908 ft | 431 kts | 276° |
| 2026-05-04 05:35 | -37.40272 | 141.42400 | 33904 ft | 431 kts | 276° |
| 2026-05-04 05:36 | -37.39591 | 141.34903 | 33908 ft | 431 kts | 276° |
| 2026-05-04 05:36 | -37.38904 | 141.27400 | 33897 ft | 432 kts | 276° |
| 2026-05-04 05:37 | -37.38215 | 141.19950 | 33920 ft | 432 kts | 276° |
| 2026-05-04 05:37 | -37.37517 | 141.12437 | 33919 ft | 433 kts | 276° |
| 2026-05-04 05:38 | -37.36465 | 141.01174 | 33906 ft | 432 kts | 275° |
| 2026-05-04 05:38 | -37.35757 | 140.93670 | 33916 ft | 433 kts | 275° |
| 2026-05-04 05:39 | -37.34695 | 140.82465 | 33909 ft | 432 kts | 274° |
| 2026-05-04 05:40 | -37.33609 | 140.71226 | 33923 ft | 432 kts | 274° |
| 2026-05-04 05:40 | -37.32878 | 140.63727 | 33919 ft | 432 kts | 274° |
| 2026-05-04 05:41 | -37.32149 | 140.56240 | 33943 ft | 432 kts | 274° |
| 2026-05-04 05:41 | -37.31410 | 140.48759 | 33949 ft | 432 kts | 274° |
| 2026-05-04 05:42 | -37.30660 | 140.41276 | 33923 ft | 432 kts | 274° |
| 2026-05-04 05:42 | -37.29921 | 140.33855 | 33931 ft | 431 kts | 273° |
| 2026-05-04 05:43 | -37.29178 | 140.26383 | 33954 ft | 431 kts | 273° |
| 2026-05-04 05:45 | -37.25743 | 139.96674 | 33929 ft | 432 kts | 276° |
| 2026-05-04 05:47 | -37.21396 | 139.67519 | 33965 ft | 430 kts | 275° |
| 2026-05-04 05:47 | -37.20432 | 139.60974 | 33981 ft | 430 kts | 275° |
| 2026-05-04 05:48 | -37.19444 | 139.54334 | 33986 ft | 429 kts | 275° |
| 2026-05-04 05:48 | -37.18499 | 139.47948 | 33972 ft | 428 kts | 275° |
| 2026-05-04 05:49 | -37.17460 | 139.40977 | 33987 ft | 428 kts | 275° |
| 2026-05-04 05:49 | -37.16439 | 139.34178 | 33992 ft | 427 kts | 275° |
| 2026-05-04 05:51 | -37.12203 | 139.06303 | 33991 ft | 429 kts | 275° |
| 2026-05-04 05:52 | -37.11073 | 138.98972 | 33958 ft | 428 kts | 275° |
| 2026-05-04 05:52 | -37.09947 | 138.91661 | 33975 ft | 428 kts | 275° |
| 2026-05-04 05:54 | -37.05414 | 138.62510 | 34001 ft | 426 kts | 276° |
| 2026-05-04 05:55 | -37.04270 | 138.55230 | 34001 ft | 426 kts | 276° |
| 2026-05-04 05:55 | -37.03115 | 138.47961 | 34004 ft | 426 kts | 275° |
| 2026-05-04 05:56 | -37.01975 | 138.40730 | 33978 ft | 426 kts | 276° |
| 2026-05-04 05:56 | -37.00812 | 138.33461 | 33994 ft | 426 kts | 276° |
| 2026-05-04 05:57 | -36.99649 | 138.26201 | 34007 ft | 426 kts | 276° |
| 2026-05-04 05:57 | -36.98487 | 138.18941 | 34012 ft | 426 kts | 276° |
| 2026-05-04 05:58 | -36.97318 | 138.11681 | 33988 ft | 426 kts | 276° |
| 2026-05-04 05:58 | -36.96147 | 138.04474 | 34014 ft | 426 kts | 276° |
| 2026-05-04 05:59 | -36.94960 | 137.97226 | 34026 ft | 425 kts | 276° |
| 2026-05-04 05:59 | -36.93777 | 137.89978 | 34034 ft | 425 kts | 276° |
| 2026-05-04 06:00 | -36.92595 | 137.82739 | 34024 ft | 425 kts | 276° |
| 2026-05-04 06:00 | -36.91414 | 137.75539 | 34015 ft | 426 kts | 276° |
| 2026-05-04 06:01 | -36.90220 | 137.68293 | 34027 ft | 426 kts | 276° |
| 2026-05-04 06:03 | -36.85406 | 137.39492 | 34037 ft | 428 kts | 276° |
| 2026-05-04 06:05 | -36.79875 | 137.06839 | 34051 ft | 429 kts | 277° |
| 2026-05-04 06:06 | -36.78625 | 136.99562 | 34054 ft | 430 kts | 277° |
| 2026-05-04 06:06 | -36.77370 | 136.92274 | 34038 ft | 430 kts | 277° |
| 2026-05-04 06:07 | -36.76099 | 136.84981 | 34059 ft | 430 kts | 277° |
| 2026-05-04 06:07 | -36.74828 | 136.77687 | 34068 ft | 431 kts | 277° |
| 2026-05-04 06:08 | -36.73571 | 136.70436 | 34073 ft | 431 kts | 277° |
| 2026-05-04 06:08 | -36.72302 | 136.63143 | 34063 ft | 431 kts | 277° |
| 2026-05-04 06:09 | -36.71024 | 136.55848 | 34071 ft | 431 kts | 277° |
| 2026-05-04 06:11 | -36.65849 | 136.26648 | 34095 ft | 433 kts | 278° |
| 2026-05-04 06:13 | -36.60591 | 135.97430 | 34085 ft | 434 kts | 278° |
| 2026-05-04 06:14 | -36.55906 | 135.71776 | 34096 ft | 435 kts | 278° |
| 2026-05-04 06:15 | -36.54561 | 135.64486 | 34098 ft | 436 kts | 278° |
| 2026-05-04 06:15 | -36.53210 | 135.57137 | 34113 ft | 436 kts | 278° |
| 2026-05-04 06:16 | -36.51853 | 135.49794 | 34119 ft | 435 kts | 278° |
| 2026-05-04 06:16 | -36.50487 | 135.42464 | 34109 ft | 436 kts | 278° |
| 2026-05-04 06:17 | -36.49125 | 135.35180 | 34115 ft | 436 kts | 278° |
| 2026-05-04 06:17 | -36.47754 | 135.27843 | 34115 ft | 436 kts | 278° |
| 2026-05-04 06:18 | -36.46376 | 135.20503 | 34102 ft | 436 kts | 279° |
| 2026-05-04 06:20 | -36.41056 | 134.91114 | 34117 ft | 436 kts | 276° |
| 2026-05-04 06:21 | -36.38431 | 134.72565 | 34140 ft | 437 kts | 276° |
| 2026-05-04 06:22 | -36.37307 | 134.65196 | 34146 ft | 437 kts | 276° |
| 2026-05-04 06:25 | -36.29359 | 134.13301 | 34138 ft | 439 kts | 276° |
| 2026-05-04 06:26 | -36.28204 | 134.05869 | 34147 ft | 439 kts | 276° |
| 2026-05-04 06:26 | -36.27046 | 133.98438 | 34125 ft | 439 kts | 276° |
| 2026-05-04 06:27 | -36.24110 | 133.79863 | 34145 ft | 441 kts | 277° |
| 2026-05-04 06:28 | -36.22923 | 133.72412 | 34161 ft | 441 kts | 277° |
| 2026-05-04 06:28 | -36.21740 | 133.64952 | 34150 ft | 441 kts | 277° |
| 2026-05-04 06:29 | -36.20546 | 133.57494 | 34162 ft | 442 kts | 277° |
| 2026-05-04 06:29 | -36.19350 | 133.50076 | 34168 ft | 442 kts | 277° |
| 2026-05-04 06:30 | -36.18148 | 133.42604 | 34170 ft | 443 kts | 277° |
| 2026-05-04 06:30 | -36.16941 | 133.35140 | 34173 ft | 443 kts | 277° |
| 2026-05-04 06:31 | -36.15721 | 133.27666 | 34179 ft | 443 kts | 277° |
| 2026-05-04 06:31 | -36.14509 | 133.20246 | 34179 ft | 443 kts | 277° |
| 2026-05-04 06:33 | -36.09574 | 132.90330 | 34165 ft | 445 kts | 277° |
| 2026-05-04 06:34 | -36.08331 | 132.82885 | 34175 ft | 445 kts | 277° |
| 2026-05-04 06:34 | -36.07070 | 132.75386 | 34181 ft | 445 kts | 277° |
| 2026-05-04 06:36 | -36.02010 | 132.45447 | 34189 ft | 446 kts | 277° |
| 2026-05-04 06:37 | -36.00729 | 132.37946 | 34186 ft | 447 kts | 278° |
| 2026-05-04 06:37 | -35.99440 | 132.30446 | 34197 ft | 447 kts | 278° |
| 2026-05-04 06:38 | -35.98152 | 132.22985 | 34204 ft | 447 kts | 278° |
| 2026-05-04 06:40 | -35.92939 | 131.92996 | 34210 ft | 446 kts | 278° |
| 2026-05-04 06:40 | -35.91636 | 131.85572 | 34206 ft | 446 kts | 278° |
| 2026-05-04 06:41 | -35.90316 | 131.78085 | 34206 ft | 447 kts | 278° |
| 2026-05-04 06:41 | -35.88999 | 131.70596 | 34209 ft | 447 kts | 278° |
| 2026-05-04 06:42 | -35.87672 | 131.63117 | 34226 ft | 446 kts | 278° |
| 2026-05-04 06:44 | -35.82312 | 131.33288 | 34229 ft | 446 kts | 278° |
| 2026-05-04 06:44 | -35.80967 | 131.25885 | 34222 ft | 446 kts | 278° |
| 2026-05-04 06:45 | -35.79612 | 131.18440 | 34216 ft | 445 kts | 278° |
| 2026-05-04 06:45 | -35.78474 | 131.12199 | 34219 ft | 445 kts | 279° |
| 2026-05-04 06:46 | -35.77114 | 131.04820 | 34222 ft | 445 kts | 279° |
| 2026-05-04 06:46 | -35.75750 | 130.97396 | 34228 ft | 444 kts | 279° |
| 2026-05-04 06:48 | -35.70235 | 130.67792 | 34227 ft | 444 kts | 279° |
| 2026-05-04 06:50 | -35.64661 | 130.38175 | 34237 ft | 446 kts | 279° |
| 2026-05-04 06:51 | -35.63250 | 130.30759 | 34235 ft | 445 kts | 279° |
| 2026-05-04 06:51 | -35.61842 | 130.23353 | 34231 ft | 445 kts | 279° |
| 2026-05-04 06:52 | -35.60418 | 130.15949 | 34240 ft | 445 kts | 279° |
| 2026-05-04 06:52 | -35.59003 | 130.08602 | 34242 ft | 445 kts | 279° |
| 2026-05-04 06:53 | -35.57585 | 130.01212 | 34241 ft | 444 kts | 279° |
| 2026-05-04 06:53 | -35.56159 | 129.93827 | 34242 ft | 444 kts | 280° |
| 2026-05-04 06:54 | -35.54723 | 129.86454 | 34245 ft | 444 kts | 280° |
| 2026-05-04 06:54 | -35.53296 | 129.79132 | 34250 ft | 444 kts | 280° |
| 2026-05-04 06:55 | -35.51852 | 129.71761 | 34247 ft | 444 kts | 280° |
| 2026-05-04 06:55 | -35.50410 | 129.64396 | 34262 ft | 444 kts | 280° |
| 2026-05-04 06:57 | -35.44578 | 129.35004 | 34261 ft | 443 kts | 281° |
| 2026-05-04 06:58 | -35.43117 | 129.27674 | 34260 ft | 442 kts | 281° |
| 2026-05-04 06:58 | -35.41657 | 129.20349 | 34264 ft | 442 kts | 281° |
| 2026-05-04 06:59 | -35.40188 | 129.13027 | 34262 ft | 442 kts | 281° |
| 2026-05-04 06:59 | -35.38715 | 129.05768 | 34264 ft | 442 kts | 281° |
| 2026-05-04 07:01 | -35.32794 | 128.76633 | 34261 ft | 442 kts | 281° |
| 2026-05-04 07:02 | -35.31294 | 128.69343 | 34259 ft | 441 kts | 282° |
| 2026-05-04 07:02 | -35.29791 | 128.62051 | 34261 ft | 441 kts | 282° |
| 2026-05-04 07:03 | -35.28293 | 128.54769 | 34265 ft | 442 kts | 282° |
| 2026-05-04 07:03 | -35.26794 | 128.47531 | 34274 ft | 441 kts | 282° |
| 2026-05-04 07:04 | -35.25279 | 128.40249 | 34281 ft | 442 kts | 282° |
| 2026-05-04 07:04 | -35.23763 | 128.32974 | 34284 ft | 441 kts | 282° |
| 2026-05-04 07:05 | -35.22241 | 128.25700 | 34276 ft | 442 kts | 282° |
| 2026-05-04 07:05 | -35.20705 | 128.18429 | 34280 ft | 441 kts | 282° |
| 2026-05-04 07:06 | -35.18416 | 128.07586 | 34285 ft | 441 kts | 282° |
| 2026-05-04 07:07 | -35.16891 | 128.00334 | 34282 ft | 441 kts | 282° |
| 2026-05-04 07:09 | -35.10731 | 127.71392 | 34297 ft | 441 kts | 283° |
| 2026-05-04 07:09 | -35.09177 | 127.64161 | 34301 ft | 440 kts | 282° |
| 2026-05-04 07:10 | -35.07626 | 127.56935 | 34292 ft | 440 kts | 282° |
| 2026-05-04 07:12 | -35.01394 | 127.28179 | 34303 ft | 438 kts | 282° |
| 2026-05-04 07:12 | -34.99821 | 127.20996 | 34293 ft | 438 kts | 282° |
| 2026-05-04 07:13 | -34.98259 | 127.13878 | 34297 ft | 437 kts | 282° |
| 2026-05-04 07:13 | -34.96687 | 127.06715 | 34297 ft | 437 kts | 282° |
| 2026-05-04 07:14 | -34.92742 | 126.88843 | 34301 ft | 437 kts | 282° |
| 2026-05-04 07:15 | -34.91172 | 126.81743 | 34312 ft | 437 kts | 282° |
| 2026-05-04 07:15 | -34.89577 | 126.74605 | 34317 ft | 437 kts | 282° |
| 2026-05-04 07:16 | -34.87977 | 126.67468 | 34316 ft | 436 kts | 282° |
| 2026-05-04 07:16 | -34.86376 | 126.60352 | 34318 ft | 436 kts | 282° |
| 2026-05-04 07:17 | -34.84782 | 126.53235 | 34315 ft | 436 kts | 282° |
| 2026-05-04 07:17 | -34.83191 | 126.46163 | 34309 ft | 436 kts | 282° |
| 2026-05-04 07:18 | -34.81579 | 126.39049 | 34316 ft | 436 kts | 282° |
| 2026-05-04 07:18 | -34.79955 | 126.31938 | 34319 ft | 436 kts | 282° |
| 2026-05-04 07:19 | -34.78337 | 126.24838 | 34322 ft | 436 kts | 282° |
| 2026-05-04 07:19 | -34.76731 | 126.17780 | 34319 ft | 436 kts | 282° |
| 2026-05-04 07:20 | -34.75106 | 126.10677 | 34323 ft | 436 kts | 282° |
| 2026-05-04 07:20 | -34.73479 | 126.03584 | 34371 ft | 436 kts | 282° |
| 2026-05-04 07:22 | -34.67820 | 125.79088 | 36285 ft | 429 kts | 282° |
| 2026-05-04 07:22 | -34.67014 | 125.75600 | 36310 ft | 428 kts | 282° |
| 2026-05-04 07:23 | -34.65396 | 125.68645 | 36320 ft | 428 kts | 282° |
| 2026-05-04 07:23 | -34.63766 | 125.61689 | 36312 ft | 428 kts | 282° |
| 2026-05-04 07:24 | -34.62147 | 125.54792 | 36315 ft | 428 kts | 282° |
| 2026-05-04 07:24 | -34.60516 | 125.47840 | 36322 ft | 428 kts | 282° |
| 2026-05-04 07:26 | -34.53964 | 125.20124 | 36338 ft | 428 kts | 282° |
| 2026-05-04 07:27 | -34.52312 | 125.13199 | 36340 ft | 428 kts | 282° |
| 2026-05-04 07:27 | -34.50655 | 125.06274 | 36329 ft | 428 kts | 282° |
| 2026-05-04 07:28 | -34.48996 | 124.99355 | 36338 ft | 427 kts | 282° |
| 2026-05-04 07:28 | -34.47346 | 124.92486 | 36341 ft | 427 kts | 282° |
| 2026-05-04 07:29 | -34.45679 | 124.85583 | 36345 ft | 427 kts | 282° |
| 2026-05-04 07:29 | -34.44009 | 124.78677 | 36350 ft | 427 kts | 282° |
| 2026-05-04 07:30 | -34.42343 | 124.71783 | 36349 ft | 426 kts | 282° |
| 2026-05-04 07:30 | -34.40677 | 124.64945 | 36347 ft | 425 kts | 282° |
| 2026-05-04 07:31 | -34.39004 | 124.58078 | 36355 ft | 425 kts | 282° |
| 2026-05-04 07:33 | -34.32290 | 124.30746 | 36348 ft | 424 kts | 282° |
| 2026-05-04 07:33 | -34.30609 | 124.23917 | 36356 ft | 423 kts | 282° |
| 2026-05-04 07:34 | -34.28924 | 124.17110 | 36360 ft | 422 kts | 282° |
| 2026-05-04 07:34 | -34.27249 | 124.10359 | 36362 ft | 421 kts | 282° |
| 2026-05-04 07:35 | -34.25560 | 124.03579 | 36356 ft | 421 kts | 282° |
| 2026-05-04 07:35 | -34.23873 | 123.96809 | 36359 ft | 421 kts | 282° |
| 2026-05-04 07:36 | -34.22181 | 123.90047 | 36352 ft | 420 kts | 282° |
| 2026-05-04 07:38 | -34.15408 | 123.63164 | 36364 ft | 418 kts | 282° |
| 2026-05-04 07:38 | -34.13700 | 123.56445 | 36365 ft | 419 kts | 283° |
| 2026-05-04 07:39 | -34.12004 | 123.49779 | 36358 ft | 418 kts | 282° |
| 2026-05-04 07:39 | -34.10300 | 123.43067 | 36361 ft | 418 kts | 283° |
| 2026-05-04 07:40 | -34.08590 | 123.36363 | 36364 ft | 419 kts | 283° |
| 2026-05-04 07:40 | -34.06879 | 123.29651 | 36367 ft | 418 kts | 282° |
| 2026-05-04 07:41 | -34.05179 | 123.22987 | 36371 ft | 418 kts | 283° |
| 2026-05-04 07:41 | -34.03454 | 123.16291 | 36371 ft | 418 kts | 283° |
| 2026-05-04 07:42 | -34.01723 | 123.09596 | 36360 ft | 418 kts | 283° |
| 2026-05-04 07:42 | -33.99993 | 123.02912 | 36362 ft | 418 kts | 283° |
| 2026-05-04 07:43 | -33.98273 | 122.96273 | 36363 ft | 418 kts | 283° |
| 2026-05-04 07:43 | -33.96537 | 122.89593 | 36366 ft | 418 kts | 283° |
| 2026-05-04 07:44 | -33.94801 | 122.82919 | 36365 ft | 417 kts | 283° |
| 2026-05-04 07:44 | -33.93064 | 122.76259 | 36364 ft | 417 kts | 283° |
| 2026-05-04 07:45 | -33.91334 | 122.69651 | 36354 ft | 417 kts | 283° |
| 2026-05-04 07:45 | -33.89583 | 122.62999 | 36356 ft | 417 kts | 283° |
| 2026-05-04 07:46 | -33.87827 | 122.56347 | 36362 ft | 417 kts | 283° |
| 2026-05-04 07:46 | -33.86073 | 122.49694 | 36374 ft | 417 kts | 283° |
| 2026-05-04 07:47 | -33.84326 | 122.43085 | 36370 ft | 417 kts | 283° |
| 2026-05-04 07:49 | -33.77253 | 122.16531 | 36383 ft | 417 kts | 284° |
| 2026-05-04 07:49 | -33.75472 | 122.09893 | 36376 ft | 417 kts | 283° |
| 2026-05-04 07:50 | -33.73692 | 122.03255 | 36386 ft | 418 kts | 284° |
| 2026-05-04 07:50 | -33.71912 | 121.96611 | 36387 ft | 418 kts | 284° |
| 2026-05-04 07:51 | -33.70143 | 121.90011 | 36379 ft | 418 kts | 284° |
| 2026-05-04 07:51 | -33.68347 | 121.83376 | 36395 ft | 418 kts | 284° |
| 2026-05-04 07:52 | -33.66469 | 121.76767 | 36384 ft | 418 kts | 285° |
| 2026-05-04 07:52 | -33.64499 | 121.70195 | 36397 ft | 418 kts | 285° |
| 2026-05-04 07:54 | -33.56687 | 121.44010 | 36377 ft | 417 kts | 286° |
| 2026-05-04 07:55 | -33.54732 | 121.37469 | 36369 ft | 417 kts | 285° |
| 2026-05-04 07:55 | -33.52778 | 121.30933 | 36378 ft | 417 kts | 285° |
| 2026-05-04 07:56 | -33.50830 | 121.24446 | 36384 ft | 417 kts | 286° |
| 2026-05-04 07:56 | -33.48863 | 121.17912 | 36364 ft | 417 kts | 286° |
| 2026-05-04 07:57 | -33.46897 | 121.11387 | 36370 ft | 417 kts | 286° |
| 2026-05-04 07:57 | -33.44926 | 121.04858 | 36377 ft | 417 kts | 286° |
| 2026-05-04 07:58 | -33.42964 | 120.98380 | 36378 ft | 417 kts | 286° |
| 2026-05-04 07:58 | -33.40983 | 120.91870 | 36383 ft | 416 kts | 286° |
| 2026-05-04 07:59 | -33.39002 | 120.85364 | 36377 ft | 416 kts | 286° |
| 2026-05-04 07:59 | -33.37022 | 120.78866 | 36379 ft | 416 kts | 286° |
| 2026-05-04 08:00 | -33.35056 | 120.72415 | 36372 ft | 415 kts | 286° |
| 2026-05-04 08:02 | -33.27099 | 120.46516 | 36372 ft | 415 kts | 287° |
| 2026-05-04 08:02 | -33.25114 | 120.40089 | 36373 ft | 415 kts | 287° |
| 2026-05-04 08:03 | -33.23116 | 120.33618 | 36367 ft | 415 kts | 287° |
| 2026-05-04 08:03 | -33.21107 | 120.27158 | 36367 ft | 415 kts | 287° |
| 2026-05-04 08:04 | -33.19087 | 120.20702 | 36369 ft | 415 kts | 287° |
| 2026-05-04 08:04 | -33.17079 | 120.14282 | 36367 ft | 416 kts | 287° |
| 2026-05-04 08:05 | -33.15064 | 120.07819 | 36374 ft | 416 kts | 287° |
| 2026-05-04 08:05 | -33.13048 | 120.01347 | 36372 ft | 416 kts | 287° |
| 2026-05-04 08:06 | -33.11030 | 119.94892 | 36365 ft | 415 kts | 287° |
| 2026-05-04 08:06 | -33.09013 | 119.88484 | 36365 ft | 416 kts | 287° |
| 2026-05-04 08:08 | -33.00888 | 119.62766 | 36369 ft | 415 kts | 288° |
| 2026-05-04 08:11 | -32.91686 | 119.33875 | 36367 ft | 416 kts | 288° |
| 2026-05-04 08:11 | -32.88593 | 119.24215 | 36370 ft | 416 kts | 288° |
| 2026-05-04 08:12 | -32.86527 | 119.17789 | 36363 ft | 416 kts | 289° |
| 2026-05-04 08:12 | -32.84456 | 119.11367 | 36369 ft | 416 kts | 289° |
| 2026-05-04 08:13 | -32.82398 | 119.04984 | 36371 ft | 416 kts | 289° |
| 2026-05-04 08:13 | -32.80324 | 118.98569 | 36371 ft | 416 kts | 289° |
| 2026-05-04 08:14 | -32.78247 | 118.92156 | 36367 ft | 416 kts | 289° |
| 2026-05-04 08:16 | -32.69905 | 118.66567 | 36357 ft | 416 kts | 289° |
| 2026-05-04 08:16 | -32.67817 | 118.60152 | 36362 ft | 417 kts | 289° |
| 2026-05-04 08:17 | -32.65724 | 118.53786 | 36374 ft | 417 kts | 290° |
| 2026-05-04 08:17 | -32.63618 | 118.47374 | 36369 ft | 417 kts | 290° |
| 2026-05-04 08:19 | -32.55162 | 118.21789 | 36368 ft | 418 kts | 290° |
| 2026-05-04 08:20 | -32.53034 | 118.15382 | 36371 ft | 418 kts | 290° |
| 2026-05-04 08:20 | -32.50908 | 118.08979 | 36372 ft | 418 kts | 290° |
| 2026-05-04 08:21 | -32.48798 | 118.02621 | 36374 ft | 417 kts | 290° |
| 2026-05-04 08:21 | -32.46662 | 117.96222 | 36373 ft | 418 kts | 290° |
| 2026-05-04 08:22 | -32.44523 | 117.89826 | 36368 ft | 418 kts | 290° |
| 2026-05-04 08:24 | -32.36032 | 117.64233 | 36366 ft | 418 kts | 284° |
| 2026-05-04 08:24 | -32.34465 | 117.57610 | 36365 ft | 418 kts | 285° |
| 2026-05-04 08:25 | -32.33688 | 117.54341 | 36208 ft | 418 kts | 285° |
| 2026-05-04 08:25 | -32.32896 | 117.51040 | 35747 ft | 417 kts | 285° |
| 2026-05-04 08:25 | -32.32097 | 117.47744 | 35026 ft | 419 kts | 285° |
| 2026-05-04 08:25 | -32.31292 | 117.44427 | 34309 ft | 420 kts | 286° |
| 2026-05-04 08:26 | -32.30494 | 117.41095 | 33503 ft | 423 kts | 285° |
| 2026-05-04 08:27 | -32.24673 | 117.16986 | 28045 ft | 450 kts | 284° |
| 2026-05-04 08:28 | -32.23805 | 117.13423 | 27271 ft | 453 kts | 284° |
| 2026-05-04 08:28 | -32.22927 | 117.09826 | 26519 ft | 457 kts | 284° |
| 2026-05-04 08:28 | -32.22047 | 117.06210 | 25776 ft | 460 kts | 284° |
| 2026-05-04 08:28 | -32.21161 | 117.02580 | 25074 ft | 459 kts | 284° |
| 2026-05-04 08:29 | -32.20277 | 116.98973 | 24383 ft | 457 kts | 284° |
| 2026-05-04 08:29 | -32.19393 | 116.95380 | 23651 ft | 455 kts | 284° |
| 2026-05-04 08:29 | -32.18523 | 116.91850 | 22865 ft | 452 kts | 284° |
| 2026-05-04 08:31 | -32.15092 | 116.66961 | 17655 ft | 429 kts | 277° |
| 2026-05-04 08:33 | -32.16620 | 116.43088 | 12443 ft | 414 kts | 261° |
| 2026-05-04 08:33 | -32.16982 | 116.39723 | 11701 ft | 411 kts | 262° |
| 2026-05-04 08:35 | -32.19182 | 116.19000 | 9367 ft | 299 kts | 262° |
| 2026-05-04 08:35 | -32.19441 | 116.16572 | 9109 ft | 299 kts | 262° |
| 2026-05-04 08:35 | -32.19677 | 116.14128 | 8736 ft | 298 kts | 266° |
| 2026-05-04 08:35 | -32.19719 | 116.11728 | 8242 ft | 296 kts | 268° |
| 2026-05-04 08:37 | -32.18835 | 115.98218 | 5857 ft | 240 kts | 284° |
| 2026-05-04 08:37 | -32.18422 | 115.96305 | 5515 ft | 241 kts | 283° |
| 2026-05-04 08:37 | -32.18006 | 115.94386 | 5166 ft | 243 kts | 284° |
| 2026-05-04 08:38 | -32.17502 | 115.92507 | 4776 ft | 243 kts | 300° |
| 2026-05-04 08:38 | -32.16384 | 115.91108 | 4433 ft | 232 kts | 332° |
| 2026-05-04 08:38 | -32.14899 | 115.90587 | 4091 ft | 219 kts | 2° |
| 2026-05-04 08:40 | -32.06016 | 115.93007 | 2150 ft | 162 kts | 18° |
| 2026-05-04 08:40 | -32.04932 | 115.93324 | 1929 ft | 162 kts | 16° |
| 2026-05-04 08:40 | -32.03834 | 115.93645 | 1707 ft | 163 kts | 17° |
| 2026-05-04 08:41 | -32.02732 | 115.93966 | 1483 ft | 162 kts | 17° |
| 2026-05-04 08:41 | -32.01673 | 115.94275 | 1257 ft | 153 kts | 16° |
| 2026-05-04 08:41 | -32.00654 | 115.94572 | 1053 ft | 148 kts | 16° |
| 2026-05-04 08:41 | -31.99649 | 115.94867 | 830 ft | 150 kts | 16° |
| 2026-05-04 08:42 | -31.98631 | 115.95152 | 643 ft | 152 kts | 13° |
| 2026-05-04 08:42 | -31.97620 | 115.95457 | 482 ft | 149 kts | 15° |
| 2026-05-04 08:42 | -31.96615 | 115.95763 | 272 ft | 149 kts | 12° |
| 2026-05-04 08:42 | -31.95626 | 115.96041 | 99 ft | 148 kts | 10° |
| 2026-05-04 08:43 | -31.94730 | 115.96295 | 66 ft | 114 kts | 13° |
| 2026-05-04 08:43 | -31.94087 | 115.96489 | 70 ft | 79 kts | 13° |
| 2026-05-04 08:43 | -31.93639 | 115.96617 | 62 ft | 51 kts | 14° |
| 2026-05-04 08:43 | -31.93356 | 115.96701 | 64 ft | 40 kts | 13° |
| 2026-05-04 08:44 | -31.93112 | 115.96772 | 60 ft | 29 kts | 14° |
| 2026-05-04 08:44 | -31.92931 | 115.96826 | 64 ft | 18 kts | 11° |
| 2026-05-04 08:46 | -31.93233 | 115.96330 | 62 ft | 10 kts | 181° |
| 2026-05-04 08:46 | -31.93256 | 115.96329 | 68 ft | 0 kts | 182° |
| 2026-05-04 08:46 | -31.93257 | 115.96329 | 68 ft | 1 kts | 182° |
| 2026-05-04 08:47 | -31.93271 | 115.96329 | 62 ft | 3 kts | 182° |
| 2026-05-04 08:47 | -31.93300 | 115.96325 | 63 ft | 5 kts | 190° |
| 2026-05-04 08:47 | -31.93345 | 115.96314 | 59 ft | 8 kts | 192° |
| 2026-05-04 08:47 | -31.93400 | 115.96295 | 65 ft | 6 kts | 206° |
| 2026-05-04 08:48 | -31.93426 | 115.96273 | 63 ft | 6 kts | 236° |
| 2026-05-04 08:48 | -31.93425 | 115.96248 | 68 ft | 0 kts | 291° |
| 2026-05-04 08:48 | -31.93424 | 115.96248 | 68 ft | 0 kts | 299° |
| 2026-05-04 08:48 | -31.93419 | 115.96247 | 68 ft | 3 kts | 335° |
| 2026-05-04 08:49 | -31.93395 | 115.96232 | 58 ft | 5 kts | 306° |
| 2026-05-04 08:50 | -31.93380 | 115.96183 | 68 ft | 0 kts | 290° |
| 2026-05-04 09:42 | -31.93393 | 115.96206 | 68 ft | 1 kts | 324° |
| 2026-05-04 09:43 | -31.93402 | 115.96214 | 62 ft | 1 kts | 325° |
| 2026-05-04 09:43 | -31.93411 | 115.96222 | 68 ft | 1 kts | 325° |
| 2026-05-04 09:43 | -31.93420 | 115.96229 | 68 ft | 1 kts | 327° |
| 2026-05-04 09:43 | -31.93427 | 115.96234 | 68 ft | 0 kts | 38° |
| 2026-05-04 09:44 | -31.93428 | 115.96234 | 68 ft | 0 kts | 44° |
| 2026-05-04 09:51 | -31.93404 | 115.96360 | 64 ft | 9 kts | 50° |
| 2026-05-04 09:51 | -31.93340 | 115.96389 | 67 ft | 11 kts | 14° |
| 2026-05-04 09:51 | -31.93246 | 115.96376 | 63 ft | 16 kts | 338° |
| 2026-05-04 09:51 | -31.93153 | 115.96348 | 62 ft | 14 kts | 15° |
| 2026-05-04 09:52 | -31.93077 | 115.96429 | 68 ft | 16 kts | 47° |
| 2026-05-04 09:52 | -31.93000 | 115.96529 | 60 ft | 17 kts | 47° |
| 2026-05-04 09:52 | -31.92910 | 115.96594 | 63 ft | 14 kts | 11° |
| 2026-05-04 09:52 | -31.92846 | 115.96649 | 68 ft | 11 kts | 71° |
| 2026-05-04 09:53 | -31.92857 | 115.96733 | 65 ft | 11 kts | 104° |
| 2026-05-04 09:53 | -31.92876 | 115.96816 | 69 ft | 9 kts | 115° |
| 2026-05-04 09:53 | -31.92945 | 115.96821 | 62 ft | 11 kts | 189° |
| 2026-05-04 09:53 | -31.92969 | 115.96815 | 67 ft | 0 kts | 192° |